Time;durP1;ratioP1;P1;durP2;ratioP2;P2;SDS_P1;SDS_P2;PMS_P1;PMS_P2;Temp;Humidity;BMP_temperature;BMP_pressure;BME280_temperature;BME280_humidity;BME280_pressure;Samples;Min_cycle;Max_cycle;Signal;HPM_P1;HPM_P2
2023/06/04 00:01:39;;;;;;;4.40;2.72;;;13.50;99.90;;;;;;5006040;28;20970;-87
2023/06/04 00:04:04;;;;;;;9.45;2.92;;;13.60;99.90;;;;;;5008504;28;20120;-84
2023/06/04 00:06:30;;;;;;;7.32;2.92;;;13.20;99.90;;;;;;5007903;28;20057;-85
2023/06/04 00:08:57;;;;;;;8.15;2.72;;;14.50;99.90;;;;;;5009607;28;20047;-88
2023/06/04 00:11:22;;;;;;;3.85;2.08;;;14.70;99.90;;;;;;5005811;28;20130;-85
2023/06/04 00:13:48;;;;;;;10.07;2.88;;;13.70;99.90;;;;;;5006187;28;20109;-85
2023/06/04 00:16:14;;;;;;;9.05;2.83;;;13.10;99.90;;;;;;5008918;28;20394;-85
2023/06/04 00:18:39;;;;;;;7.20;2.53;;;14.40;99.90;;;;;;5009303;28;20057;-84
2023/06/04 00:21:05;;;;;;;5.78;2.88;;;13.00;99.90;;;;;;5009857;28;20042;-85
2023/06/04 00:23:31;;;;;;;9.27;2.58;;;13.60;99.90;;;;;;5011444;28;20525;-86
2023/06/04 00:25:56;;;;;;;4.75;2.78;;;13.00;99.90;;;;;;5010219;28;20038;-87
2023/06/04 00:28:22;;;;;;;6.15;2.80;;;13.50;99.90;;;;;;5009749;28;20536;-87
2023/06/04 00:30:47;;;;;;;4.95;3.03;;;12.90;99.90;;;;;;5007725;28;20050;-84
2023/06/04 00:33:13;;;;;;;5.57;2.90;;;12.90;99.90;;;;;;5020947;28;20041;-87
2023/06/04 00:35:39;;;;;;;6.90;2.47;;;12.90;99.90;;;;;;5016299;28;20578;-86
2023/06/04 00:38:04;;;;;;;4.63;2.28;;;12.90;99.90;;;;;;5005170;28;20038;-87
2023/06/04 00:40:30;;;;;;;9.73;2.92;;;14.00;99.90;;;;;;5010487;28;20120;-86
2023/06/04 00:42:55;;;;;;;4.78;2.70;;;14.40;99.90;;;;;;5007129;28;20046;-86
2023/06/04 00:45:25;;;;;;;8.88;2.95;;;14.10;99.90;;;;;;5007092;28;20050;-85
2023/06/04 00:47:52;;;;;;;5.43;3.05;;;14.40;99.90;;;;;;5009681;28;20046;-86
2023/06/04 00:50:20;;;;;;;6.07;3.05;;;12.80;99.90;;;;;;5009612;28;20053;-84
2023/06/04 00:52:47;;;;;;;4.70;2.30;;;12.60;99.90;;;;;;5004701;28;20121;-86
2023/06/04 00:55:12;;;;;;;4.65;2.40;;;12.60;99.90;;;;;;5008847;28;20030;-87
2023/06/04 00:57:38;;;;;;;6.03;2.90;;;12.60;99.90;;;;;;5006043;28;20045;-83
2023/06/04 01:00:06;;;;;;;6.78;3.08;;;14.10;99.90;;;;;;5002613;28;20038;-86
2023/06/04 01:02:35;;;;;;;9.50;3.15;;;12.60;99.90;;;;;;5000035;28;20422;-84
2023/06/04 01:05:00;;;;;;;6.20;3.10;;;14.10;99.90;;;;;;5003805;28;20077;-85
2023/06/04 01:07:30;;;;;;;8.25;3.53;;;12.60;99.90;;;;;;5008104;28;20192;-86
2023/06/04 01:09:56;;;;;;;6.88;3.55;;;13.50;99.90;;;;;;4985983;28;20137;-84
2023/06/04 01:12:22;;;;;;;10.77;3.70;;;12.50;99.90;;;;;;5008355;28;20188;-85
2023/06/04 01:14:47;;;;;;;6.80;3.63;;;12.60;99.90;;;;;;5009939;28;20546;-84
2023/06/04 01:17:28;;;;;;;8.93;3.75;;;12.50;99.90;;;;;;5012868;28;20046;-84
2023/06/04 01:20:08;;;;;;;6.47;4.00;;;12.50;99.90;;;;;;5009347;28;20045;-85
2023/06/04 01:22:56;;;;;;;6.28;4.13;;;12.50;99.90;;;;;;5002495;28;20050;-85
2023/06/04 01:25:41;;;;;;;7.32;3.70;;;12.40;99.90;;;;;;5009138;28;20506;-84
2023/06/04 01:28:10;;;;;;;6.90;4.03;;;12.30;99.90;;;;;;5004044;28;20061;-85
2023/06/04 01:30:42;;;;;;;7.35;4.15;;;12.10;99.90;;;;;;5008696;28;20852;-86
2023/06/04 01:33:13;;;;;;;8.05;4.10;;;13.90;99.90;;;;;;4992103;28;20080;-84
2023/06/04 01:35:39;;;;;;;6.25;4.03;;;13.40;99.90;;;;;;4991076;28;20457;-85
2023/06/04 01:38:05;;;;;;;7.55;4.30;;;13.40;99.90;;;;;;4997785;28;20030;-86
2023/06/04 01:40:31;;;;;;;11.35;5.18;;;11.90;99.90;;;;;;4999182;28;20077;-85
2023/06/04 01:42:58;;;;;;;8.75;4.10;;;13.00;99.90;;;;;;5007452;28;20068;-85
2023/06/04 01:45:25;;;;;;;8.27;4.53;;;13.20;99.90;;;;;;4991687;28;20061;-85
2023/06/04 01:47:54;;;;;;;12.15;4.97;;;11.70;99.90;;;;;;5005131;28;20557;-86
2023/06/04 01:50:21;;;;;;;5.70;3.60;;;13.20;99.90;;;;;;4999187;28;20406;-84
2023/06/04 01:52:46;;;;;;;8.65;4.18;;;13.10;99.90;;;;;;5000992;28;20061;-86
2023/06/04 01:55:14;;;;;;;6.40;3.55;;;10.40;99.90;;;;;;5010317;28;20046;-87
2023/06/04 01:57:44;;;;;;;6.47;4.10;;;11.50;99.90;;;;;;5014251;28;20045;-86
2023/06/04 02:00:11;;;;;;;10.77;4.22;;;11.50;99.90;;;;;;5009471;28;20125;-86
2023/06/04 02:02:38;;;;;;;8.23;4.07;;;11.50;99.90;;;;;;5000361;28;20050;-86
2023/06/04 02:05:07;;;;;;;9.73;4.22;;;11.40;99.90;;;;;;5007571;28;20038;-87
2023/06/04 02:07:38;;;;;;;6.88;3.58;;;11.40;99.90;;;;;;5001684;28;20041;-86
2023/06/04 02:10:11;;;;;;;7.80;3.58;;;11.70;99.90;;;;;;4987933;28;20482;-86
2023/06/04 02:12:39;;;;;;;6.65;3.83;;;11.40;99.90;;;;;;5000402;28;20037;-86
2023/06/04 02:15:07;;;;;;;8.27;3.90;;;11.40;99.90;;;;;;5003996;28;20041;-87
2023/06/04 02:17:42;;;;;;;12.13;4.20;;;11.40;99.90;;;;;;5008341;28;20050;-86
2023/06/04 02:20:09;;;;;;;9.57;4.60;;;11.40;99.90;;;;;;4990739;28;20803;-87
2023/06/04 02:22:38;;;;;;;10.73;4.15;;;11.40;99.90;;;;;;5007890;28;20141;-86
2023/06/04 02:25:05;;;;;;;7.10;3.75;;;11.90;99.90;;;;;;5016119;28;20527;-88
2023/06/04 02:27:30;;;;;;;7.78;3.78;;;11.30;99.90;;;;;;5008090;28;20049;-87
2023/06/04 02:29:56;;;;;;;9.95;4.15;;;13.00;99.90;;;;;;4979686;28;20046;-87
2023/06/04 02:32:22;;;;;;;11.68;4.00;;;13.70;99.90;;;;;;5005444;28;20042;-86
2023/06/04 02:34:48;;;;;;;6.00;3.65;;;10.70;99.90;;;;;;5005438;28;20483;-85
2023/06/04 02:37:14;;;;;;;12.65;4.63;;;12.20;99.90;;;;;;4998804;28;20092;-85
2023/06/04 02:39:40;;;;;;;10.55;4.60;;;11.30;99.90;;;;;;4997579;28;20070;-85
2023/06/04 02:42:06;;;;;;;5.90;3.20;;;11.20;99.90;;;;;;4986312;28;20103;-84
2023/06/04 02:44:32;;;;;;;8.63;3.53;;;11.20;99.90;;;;;;4984054;28;20034;-84
2023/06/04 02:46:58;;;;;;;5.97;3.42;;;12.50;99.90;;;;;;5001599;28;20509;-86
2023/06/04 02:49:24;;;;;;;8.98;4.20;;;11.20;99.90;;;;;;5000138;28;20052;-84
2023/06/04 02:51:50;;;;;;;4.45;3.22;;;12.80;99.90;;;;;;4991379;28;20041;-84
2023/06/04 02:54:17;;;;;;;7.28;3.50;;;11.20;99.90;;;;;;5008547;28;20069;-86
2023/06/04 02:56:43;;;;;;;5.43;3.30;;;11.20;99.90;;;;;;4999262;28;20042;-84
2023/06/04 02:59:09;;;;;;;5.32;3.20;;;11.20;99.90;;;;;;5008305;28;20073;-86
2023/06/04 03:01:35;;;;;;;6.75;2.58;;;12.90;99.90;;;;;;5016084;28;20049;-85
2023/06/04 03:04:04;;;;;;;4.03;2.58;;;12.60;99.90;;;;;;5006250;28;20042;-85
2023/06/04 03:06:32;;;;;;;11.40;2.70;;;12.90;99.90;;;;;;5000784;28;20061;-85
2023/06/04 03:08:58;;;;;;;7.18;2.78;;;11.20;99.90;;;;;;5007183;28;20046;-85
2023/06/04 03:11:23;;;;;;;5.05;2.78;;;11.20;99.90;;;;;;5004644;28;20045;-85
2023/06/04 03:13:51;;;;;;;8.20;2.88;;;11.70;99.90;;;;;;4989835;28;20132;-85
2023/06/04 03:16:17;;;;;;;5.20;2.50;;;12.30;99.90;;;;;;5006936;28;20038;-84
2023/06/04 03:18:44;;;;;;;6.40;2.38;;;11.10;99.90;;;;;;5003618;28;20041;-85
2023/06/04 03:21:11;;;;;;;8.10;2.90;;;12.40;99.90;;;;;;5007726;28;20049;-86
2023/06/04 03:23:37;;;;;;;7.78;2.55;;;12.80;99.90;;;;;;5004922;28;20046;-85
2023/06/04 03:26:04;;;;;;;7.95;2.88;;;11.10;99.90;;;;;;4985843;28;20050;-85
2023/06/04 03:28:31;;;;;;;6.80;2.45;;;12.70;99.90;;;;;;5001157;28;20066;-85
2023/06/04 03:30:57;;;;;;;4.93;2.40;;;12.70;99.90;;;;;;4996484;28;20133;-85
2023/06/04 03:33:23;;;;;;;6.18;2.33;;;12.50;99.90;;;;;;5006078;28;20137;-84
2023/06/04 03:35:50;;;;;;;5.22;2.40;;;11.20;99.90;;;;;;5007039;28;20045;-85
2023/06/04 03:38:16;;;;;;;4.57;2.50;;;10.90;99.90;;;;;;5004493;28;20041;-85
2023/06/04 03:40:42;;;;;;;2.35;2.05;;;10.90;99.90;;;;;;5004592;28;20042;-86
2023/06/04 03:43:09;;;;;;;8.23;2.55;;;11.20;99.90;;;;;;5007776;28;20041;-86
2023/06/04 03:45:36;;;;;;;7.40;3.00;;;11.00;99.90;;;;;;5005424;28;20582;-85
2023/06/04 03:48:02;;;;;;;3.85;2.60;;;10.90;99.90;;;;;;4992419;28;20034;-83
2023/06/04 03:50:35;;;;;;;5.65;2.90;;;10.90;99.90;;;;;;5003917;28;20045;-85
2023/06/04 03:53:01;;;;;;;6.65;3.08;;;11.00;99.90;;;;;;5010571;28;20029;-84
2023/06/04 03:55:26;;;;;;;4.05;2.42;;;12.30;99.90;;;;;;5011896;28;20458;-85
2023/06/04 03:57:52;;;;;;;3.17;2.33;;;11.50;99.90;;;;;;5009212;28;20050;-86
2023/06/04 04:00:19;;;;;;;4.10;2.72;;;11.20;99.90;;;;;;5002178;28;20137;-84
2023/06/04 04:02:44;;;;;;;4.22;2.17;;;11.00;99.90;;;;;;4992757;28;20041;-86
2023/06/04 04:05:11;;;;;;;5.13;2.50;;;12.70;99.90;;;;;;5008218;28;20725;-85
2023/06/04 04:07:36;;;;;;;4.40;2.47;;;12.80;99.90;;;;;;5008375;28;20546;-86
2023/06/04 04:10:02;;;;;;;5.15;2.28;;;11.10;99.90;;;;;;5011582;28;20129;-84
2023/06/04 04:12:28;;;;;;;3.10;1.95;;;11.10;99.90;;;;;;5007929;28;20473;-84
2023/06/04 04:14:53;;;;;;;3.95;2.25;;;11.00;99.90;;;;;;5013165;28;20052;-84
2023/06/04 04:17:19;;;;;;;7.50;2.30;;;12.00;99.90;;;;;;5019674;28;20505;-84
2023/06/04 04:19:46;;;;;;;4.82;2.40;;;12.20;99.90;;;;;;5017636;28;20038;-85
2023/06/04 04:22:12;;;;;;;4.35;2.35;;;11.40;99.90;;;;;;5013210;28;20621;-86
2023/06/04 04:24:39;;;;;;;5.97;2.30;;;13.30;99.90;;;;;;4993767;28;20060;-84
2023/06/04 04:27:04;;;;;;;8.35;3.00;;;12.70;99.90;;;;;;4987894;28;20446;-86
2023/06/04 04:29:34;;;;;;;5.13;2.80;;;12.30;99.90;;;;;;4991246;28;20049;-85
2023/06/04 04:32:02;;;;;;;5.47;2.40;;;11.30;99.90;;;;;;4990325;28;20046;-85
2023/06/04 04:34:28;;;;;;;7.38;2.72;;;11.20;99.90;;;;;;4991879;28;20043;-85
2023/06/04 04:36:56;;;;;;;5.00;2.83;;;13.30;99.90;;;;;;4992392;28;20068;-84
2023/06/04 04:39:25;;;;;;;5.47;3.20;;;12.50;99.90;;;;;;4991135;28;20046;-83
2023/06/04 04:41:51;;;;;;;7.90;3.10;;;13.10;99.90;;;;;;5007113;28;20487;-86
2023/06/04 04:44:17;;;;;;;5.57;3.47;;;13.30;99.90;;;;;;4983017;28;20125;-86
2023/06/04 04:46:45;;;;;;;4.32;2.67;;;11.30;99.90;;;;;;4991313;28;20185;-85
2023/06/04 04:49:11;;;;;;;6.30;2.95;;;11.40;99.90;;;;;;4991350;28;20066;-84
2023/06/04 04:51:36;;;;;;;3.60;2.17;;;13.30;99.90;;;;;;4984756;28;20554;-83
2023/06/04 04:54:02;;;;;;;6.15;2.67;;;12.10;99.90;;;;;;4984023;28;20054;-85
2023/06/04 04:56:28;;;;;;;6.10;2.90;;;11.40;99.90;;;;;;4989875;28;20073;-85
2023/06/04 04:58:55;;;;;;;5.40;2.83;;;11.30;99.90;;;;;;4985339;28;20045;-84
2023/06/04 05:01:21;;;;;;;8.50;2.97;;;11.40;99.90;;;;;;4972570;28;20601;-83
2023/06/04 05:03:47;;;;;;;3.60;3.05;;;11.80;99.90;;;;;;5006405;28;20430;-84
2023/06/04 05:06:12;;;;;;;8.02;2.90;;;12.00;99.90;;;;;;4986440;28;20042;-85
2023/06/04 05:08:38;;;;;;;3.35;2.95;;;11.40;99.90;;;;;;4980443;28;20085;-84
2023/06/04 05:11:06;;;;;;;5.55;3.10;;;11.50;99.90;;;;;;4988465;28;20291;-86
2023/06/04 05:13:32;;;;;;;7.38;3.97;;;11.50;99.90;;;;;;4985011;28;20042;-85
2023/06/04 05:15:58;;;;;;;8.43;2.80;;;11.50;99.90;;;;;;4981805;28;20046;-83
2023/06/04 05:18:28;;;;;;;23.55;16.02;;;11.60;99.90;;;;;;4987199;28;20486;-83
2023/06/04 05:21:02;;;;;;;9.50;5.35;;;13.10;99.90;;;;;;4998762;28;20050;-84
2023/06/04 05:23:29;;;;;;;8.85;5.38;;;11.60;99.90;;;;;;4989594;28;20113;-86
2023/06/04 05:25:56;;;;;;;7.28;3.67;;;11.70;99.90;;;;;;4997665;28;20053;-83
2023/06/04 05:28:24;;;;;;;5.55;3.65;;;11.70;99.90;;;;;;4998666;28;20456;-86
2023/06/04 05:30:58;;;;;;;7.50;3.53;;;11.60;99.90;;;;;;5002042;28;20046;-85
2023/06/04 05:33:24;;;;;;;5.38;3.42;;;13.20;99.90;;;;;;4983568;28;20042;-84
2023/06/04 05:35:51;;;;;;;10.05;3.63;;;11.90;99.90;;;;;;5007023;28;20096;-83
2023/06/04 05:38:18;;;;;;;6.05;4.03;;;11.80;99.90;;;;;;4998967;28;20109;-84
2023/06/04 05:40:45;;;;;;;9.02;4.15;;;11.80;99.90;;;;;;5008474;28;20046;-84
2023/06/04 05:43:11;;;;;;;9.52;5.20;;;12.20;99.90;;;;;;5002597;28;20033;-83
2023/06/04 05:45:37;;;;;;;7.22;4.80;;;12.00;99.90;;;;;;5007856;28;20042;-84
2023/06/04 05:48:04;;;;;;;8.45;5.03;;;13.30;99.90;;;;;;4982445;28;20046;-82
2023/06/04 05:50:30;;;;;;;12.02;7.03;;;12.00;99.90;;;;;;4990180;28;20076;-83
2023/06/04 05:52:56;;;;;;;38.00;28.10;;;14.40;99.90;;;;;;5011769;28;20045;-82
2023/06/04 05:55:22;;;;;;;25.42;13.88;;;13.20;99.90;;;;;;5002054;28;20033;-85
2023/06/04 05:57:51;;;;;;;11.15;7.57;;;12.10;99.90;;;;;;4990802;28;20042;-84
2023/06/04 06:00:17;;;;;;;10.57;6.00;;;13.00;99.90;;;;;;5011293;28;20038;-85
2023/06/04 06:02:43;;;;;;;9.00;5.97;;;12.20;99.90;;;;;;5000854;28;20124;-84
2023/06/04 06:05:09;;;;;;;9.57;5.57;;;12.70;99.90;;;;;;4992044;28;20049;-88
2023/06/04 06:07:35;;;;;;;11.27;5.60;;;12.30;99.90;;;;;;4996007;28;20050;-84
2023/06/04 06:10:01;;;;;;;8.77;4.95;;;13.60;99.90;;;;;;4986261;28;20046;-81
2023/06/04 06:12:27;;;;;;;9.68;5.07;;;12.40;99.90;;;;;;5014945;28;20038;-83
2023/06/04 06:14:52;;;;;;;10.23;5.15;;;12.40;99.90;;;;;;4991987;28;20060;-82
2023/06/04 06:17:19;;;;;;;9.52;5.57;;;14.20;99.90;;;;;;5016795;28;20042;-82
2023/06/04 06:19:45;;;;;;;9.80;5.40;;;12.50;99.90;;;;;;5009403;28;20069;-84
2023/06/04 06:22:11;;;;;;;12.90;5.75;;;14.10;99.90;;;;;;4983944;28;20078;-84
2023/06/04 06:24:37;;;;;;;9.98;5.68;;;12.70;99.90;;;;;;5005059;28;20552;-81
2023/06/04 06:27:03;;;;;;;10.55;5.40;;;12.70;99.90;;;;;;5012597;28;20133;-84
2023/06/04 06:29:28;;;;;;;11.13;5.45;;;12.70;99.90;;;;;;5013681;28;20049;-84
2023/06/04 06:31:55;;;;;;;9.85;4.60;;;12.80;99.90;;;;;;5012313;28;20125;-84
2023/06/04 06:34:21;;;;;;;12.70;5.22;;;12.80;99.90;;;;;;5006672;28;20042;-82
2023/06/04 06:36:48;;;;;;;12.45;5.25;;;13.20;99.90;;;;;;4996531;28;20054;-82
2023/06/04 06:39:49;;;;;;;7.93;5.80;;;12.90;99.90;;;;;;4986455;28;20125;-84
2023/06/04 06:42:17;;;;;;;6.78;2.45;;;11.10;99.90;;;;;;5001395;28;20046;-82
2023/06/04 06:44:44;;;;;;;5.38;1.85;;;13.80;99.90;;;;;;5007594;28;20049;-83
2023/06/04 06:47:13;;;;;;;8.43;1.52;;;13.00;99.90;;;;;;4993201;28;20054;-82
2023/06/04 06:49:39;;;;;;;5.22;1.88;;;13.30;99.90;;;;;;4995455;28;20500;-81
2023/06/04 06:52:05;;;;;;;10.15;2.03;;;13.10;99.90;;;;;;5010705;28;20038;-81
2023/06/04 06:54:31;;;;;;;4.28;1.80;;;13.10;99.90;;;;;;5012292;28;20095;-81
2023/06/04 06:56:57;;;;;;;6.88;1.73;;;13.20;99.90;;;;;;5020685;28;20092;-81
2023/06/04 06:59:24;;;;;;;9.27;2.13;;;14.10;99.90;;;;;;5000390;28;20046;-79
2023/06/04 07:01:50;;;;;;;2.75;1.70;;;13.20;99.90;;;;;;4995813;28;20073;-78
2023/06/04 07:04:15;;;;;;;9.30;2.30;;;14.50;99.90;;;;;;5000546;28;20057;-79
2023/06/04 07:06:41;;;;;;;4.78;1.48;;;13.30;99.90;;;;;;5003277;28;20041;-77
2023/06/04 07:09:09;;;;;;;3.45;1.67;;;14.20;99.90;;;;;;4988050;28;20152;-78
2023/06/04 07:11:35;;;;;;;5.70;2.50;;;13.40;99.90;;;;;;5003942;28;20037;-78
2023/06/04 07:14:04;;;;;;;7.05;1.75;;;14.90;99.90;;;;;;4986606;28;20508;-80
2023/06/04 07:16:30;;;;;;;4.47;2.00;;;15.10;99.90;;;;;;4987189;28;20064;-80
2023/06/04 07:18:56;;;;;;;7.85;2.33;;;13.50;99.90;;;;;;4987061;28;20041;-81
2023/06/04 07:21:23;;;;;;;6.45;2.10;;;13.50;99.90;;;;;;5008565;28;20528;-79
2023/06/04 07:23:50;;;;;;;9.68;1.75;;;13.60;99.90;;;;;;5008786;28;20058;-82
2023/06/04 07:26:17;;;;;;;4.82;1.90;;;14.90;99.90;;;;;;4988598;28;20045;-81
2023/06/04 07:28:43;;;;;;;6.53;1.40;;;13.70;99.90;;;;;;5009397;28;20152;-80
2023/06/04 07:31:10;;;;;;;8.63;1.90;;;13.80;99.90;;;;;;5011380;28;20663;-81
2023/06/04 07:33:42;;;;;;;4.60;1.55;;;15.70;99.90;;;;;;5011874;28;20050;-80
2023/06/04 07:36:11;;;;;;;6.80;2.97;;;13.90;99.90;;;;;;4987481;28;20050;-81
2023/06/04 07:38:36;;;;;;;4.68;2.00;;;14.00;99.90;;;;;;4998819;28;20053;-83
2023/06/04 07:41:02;;;;;;;10.63;2.60;;;14.00;99.90;;;;;;5006528;28;20045;-81
2023/06/04 07:43:27;;;;;;;8.48;1.90;;;14.00;99.90;;;;;;5026781;28;20441;-86
2023/06/04 07:45:53;;;;;;;6.00;1.80;;;15.30;99.90;;;;;;5008433;28;20038;-86
2023/06/04 07:48:21;;;;;;;6.43;1.98;;;14.20;99.90;;;;;;5004259;28;20050;-85
2023/06/04 07:50:47;;;;;;;6.63;2.65;;;14.10;99.90;;;;;;5004529;28;20429;-84
2023/06/04 07:53:13;;;;;;;6.70;2.13;;;14.50;99.90;;;;;;4984231;28;20122;-84
2023/06/04 07:55:38;;;;;;;5.90;1.98;;;14.20;99.90;;;;;;5002678;28;20046;-84
2023/06/04 07:58:04;;;;;;;12.20;7.57;;;14.20;99.90;;;;;;5009609;28;20073;-84
2023/06/04 08:00:30;;;;;;;7.78;2.75;;;14.30;99.90;;;;;;5014279;28;20054;-85
2023/06/04 08:02:56;;;;;;;5.75;1.42;;;15.00;99.90;;;;;;5011062;28;20128;-84
2023/06/04 08:05:23;;;;;;;7.78;1.70;;;14.40;99.90;;;;;;5004338;28;20141;-85
2023/06/04 08:07:48;;;;;;;5.70;1.73;;;14.40;99.90;;;;;;5004184;28;20053;-84
2023/06/04 08:10:14;;;;;;;8.73;1.90;;;14.40;99.90;;;;;;4982417;28;20045;-85
2023/06/04 08:12:40;;;;;;;9.63;1.65;;;14.40;99.90;;;;;;5004329;28;20050;-85
2023/06/04 08:15:06;;;;;;;9.43;2.20;;;14.90;99.90;;;;;;4986138;28;20073;-85
2023/06/04 08:17:31;;;;;;;5.45;1.17;;;14.50;99.90;;;;;;5004026;28;20046;-83
2023/06/04 08:19:57;;;;;;;2.85;1.25;;;16.10;99.90;;;;;;5009189;28;20046;-85
2023/06/04 08:22:23;;;;;;;5.93;1.33;;;15.80;99.90;;;;;;4983326;28;20042;-85
2023/06/04 08:24:48;;;;;;;4.85;1.58;;;16.60;99.90;;;;;;5004217;28;20117;-85
2023/06/04 08:27:14;;;;;;;5.55;1.60;;;14.70;99.90;;;;;;5008012;28;20046;-85
2023/06/04 08:29:40;;;;;;;4.38;1.48;;;14.70;99.90;;;;;;5001216;28;20403;-82
2023/06/04 08:32:07;;;;;;;3.25;1.40;;;15.80;99.90;;;;;;5002820;28;20526;-86
2023/06/04 08:34:33;;;;;;;7.80;1.90;;;16.40;99.90;;;;;;5002225;28;20045;-85
2023/06/04 08:36:58;;;;;;;6.15;1.73;;;15.50;99.90;;;;;;5010543;28;20041;-85
2023/06/04 08:39:24;;;;;;;4.80;1.80;;;15.10;99.90;;;;;;4993399;28;20045;-83
2023/06/04 08:41:54;;;;;;;2.90;1.40;;;15.60;99.90;;;;;;5002748;28;20121;-84
2023/06/04 08:44:22;;;;;;;4.25;1.35;;;15.10;99.90;;;;;;4983338;28;20093;-83
2023/06/04 08:46:53;;;;;;;3.95;1.65;;;16.60;99.90;;;;;;4992742;28;20093;-84
2023/06/04 08:49:21;;;;;;;6.95;1.67;;;15.70;99.90;;;;;;5004917;28;20062;-83
2023/06/04 08:51:47;;;;;;;8.30;1.98;;;15.20;99.90;;;;;;5004708;28;20063;-83
2023/06/04 08:54:13;;;;;;;5.70;2.00;;;15.20;99.90;;;;;;5002612;28;20030;-83
2023/06/04 08:56:39;;;;;;;6.25;1.80;;;16.10;99.90;;;;;;5010577;28;20052;-83
2023/06/04 08:59:07;;;;;;;7.38;1.80;;;15.30;99.90;;;;;;4983428;28;20054;-83
2023/06/04 09:01:34;;;;;;;4.38;2.17;;;16.80;99.90;;;;;;4999474;28;20105;-83
2023/06/04 09:04:03;;;;;;;5.07;1.45;;;15.50;99.90;;;;;;5001602;28;20050;-83
2023/06/04 09:06:29;;;;;;;7.35;1.77;;;16.90;99.90;;;;;;5010412;28;20120;-84
2023/06/04 09:08:58;;;;;;;7.57;2.38;;;15.60;99.90;;;;;;5001571;28;20034;-83
2023/06/04 09:11:33;;;;;;;7.38;1.80;;;15.60;99.90;;;;;;4999372;28;20117;-84
2023/06/04 09:14:02;;;;;;;6.65;1.63;;;16.10;99.90;;;;;;5016036;28;20093;-84
2023/06/04 09:16:36;;;;;;;5.57;1.88;;;16.70;99.90;;;;;;5017107;28;20116;-84
2023/06/04 09:19:02;;;;;;;4.10;1.52;;;15.70;99.90;;;;;;5009644;28;20073;-83
2023/06/04 09:21:27;;;;;;;3.38;1.55;;;16.90;99.90;;;;;;4999281;28;20437;-83
2023/06/04 09:23:54;;;;;;;3.92;1.05;;;17.20;99.90;;;;;;4998676;28;20521;-84
2023/06/04 09:26:21;;;;;;;7.05;1.63;;;16.10;99.90;;;;;;5002720;28;20042;-84
2023/06/04 09:28:47;;;;;;;5.15;1.48;;;16.50;99.90;;;;;;5007767;28;20050;-83
2023/06/04 09:31:16;;;;;;;5.57;1.42;;;16.10;99.90;;;;;;5008673;28;20038;-83
2023/06/04 09:33:46;;;;;;;4.40;1.30;;;16.10;99.90;;;;;;4968612;28;20068;-84
2023/06/04 09:36:12;;;;;;;3.50;1.50;;;16.20;99.90;;;;;;4999858;28;20046;-84
2023/06/04 09:38:39;;;;;;;3.97;1.52;;;16.50;99.90;;;;;;5003691;28;20033;-83
2023/06/04 09:41:10;;;;;;;2.40;1.40;;;16.30;99.90;;;;;;5010386;28;20556;-84
2023/06/04 09:43:36;;;;;;;4.07;1.55;;;17.20;99.90;;;;;;5004715;28;20054;-83
2023/06/04 09:46:10;;;;;;;5.60;1.58;;;16.40;99.90;;;;;;5001020;28;20038;-84
2023/06/04 09:48:37;;;;;;;2.83;1.00;;;16.40;99.90;;;;;;5008536;28;20054;-83
2023/06/04 09:51:10;;;;;;;2.13;1.08;;;16.80;99.90;;;;;;5006706;28;20455;-83
2023/06/04 09:53:36;;;;;;;2.63;0.83;;;16.40;99.90;;;;;;5008298;28;20124;-83
2023/06/04 09:56:06;;;;;;;3.90;1.20;;;16.50;99.90;;;;;;4969244;28;20042;-83
2023/06/04 09:58:34;;;;;;;4.80;1.15;;;16.50;99.90;;;;;;4985073;28;20425;-85
2023/06/04 10:01:02;;;;;;;4.20;1.02;;;16.60;99.90;;;;;;5003817;28;20484;-85
2023/06/04 10:03:33;;;;;;;4.30;1.20;;;16.90;99.90;;;;;;5000278;28;20068;-85
2023/06/04 10:06:02;;;;;;;1.23;0.75;;;16.80;99.90;;;;;;5010606;28;20042;-84
2023/06/04 10:08:30;;;;;;;4.28;1.13;;;16.90;99.90;;;;;;5014443;28;20495;-85
2023/06/04 10:11:01;;;;;;;3.08;1.08;;;16.90;99.90;;;;;;4998493;28;20470;-85
2023/06/04 10:13:37;;;;;;;2.70;1.05;;;16.90;99.90;;;;;;5001339;28;20083;-85
2023/06/04 10:16:03;;;;;;;3.05;1.00;;;17.40;99.90;;;;;;5007359;28;20049;-82
2023/06/04 10:18:30;;;;;;;3.45;0.88;;;17.00;99.90;;;;;;5000938;28;20038;-85
2023/06/04 10:20:56;;;;;;;4.97;1.20;;;17.00;99.90;;;;;;5002182;28;20053;-85
2023/06/04 10:23:23;;;;;;;3.70;1.27;;;17.10;99.90;;;;;;4998995;28;20118;-84
2023/06/04 10:25:52;;;;;;;3.90;1.00;;;17.10;99.90;;;;;;4997555;28;20034;-85
2023/06/04 10:28:19;;;;;;;2.55;1.08;;;17.20;99.90;;;;;;5005993;28;20050;-84
2023/06/04 10:30:44;;;;;;;3.60;1.10;;;17.20;99.90;;;;;;5004929;28;20129;-86
2023/06/04 10:33:10;;;;;;;3.25;1.35;;;17.30;99.90;;;;;;5002073;28;20085;-84
2023/06/04 10:35:36;;;;;;;3.85;1.10;;;17.40;99.90;;;;;;5004499;28;20041;-84
2023/06/04 10:38:21;;;;;;;2.50;0.98;;;17.40;99.90;;;;;;5004063;28;20117;-85
2023/06/04 10:40:47;;;;;;;1.27;0.90;;;17.50;99.90;;;;;;5020981;28;20054;-83
2023/06/04 10:43:15;;;;;;;2.63;1.20;;;17.50;99.90;;;;;;5010431;28;20038;-82
2023/06/04 10:45:42;;;;;;;5.75;1.35;;;17.50;99.90;;;;;;5000194;28;20490;-84
2023/06/04 10:48:10;;;;;;;2.15;1.13;;;17.60;99.90;;;;;;5000671;28;20038;-85
2023/06/04 10:50:47;;;;;;;2.63;1.00;;;17.60;99.90;;;;;;5009315;28;20061;-85
2023/06/04 10:53:13;;;;;;;3.55;1.33;;;17.70;99.90;;;;;;5001643;28;20042;-81
2023/06/04 10:55:47;;;;;;;4.88;1.05;;;17.80;99.90;;;;;;5000376;28;20227;-83
2023/06/04 10:58:13;;;;;;;2.55;0.95;;;17.90;99.90;;;;;;5000578;28;20064;-83
2023/06/04 11:00:40;;;;;;;2.20;1.10;;;18.00;99.90;;;;;;4998683;28;20371;-83
2023/06/04 11:03:07;;;;;;;3.03;1.13;;;18.00;99.90;;;;;;5007983;28;20072;-84
2023/06/04 11:05:41;;;;;;;3.10;1.10;;;18.10;99.90;;;;;;5005596;28;20030;-83
2023/06/04 11:08:07;;;;;;;2.00;0.93;;;18.30;99.90;;;;;;4979643;28;20050;-83
2023/06/04 11:10:39;;;;;;;2.97;1.33;;;18.40;99.90;;;;;;5012481;28;20042;-83
2023/06/04 11:13:05;;;;;;;3.03;0.85;;;18.40;99.90;;;;;;5013165;28;20046;-84
2023/06/04 11:15:45;;;;;;;3.08;1.10;;;18.50;99.90;;;;;;4987668;28;20045;-84
2023/06/04 11:18:19;;;;;;;2.55;0.90;;;18.70;99.90;;;;;;5008504;28;20030;-84
2023/06/04 11:20:49;;;;;;;2.55;0.80;;;18.80;99.90;;;;;;5000405;28;20137;-84
2023/06/04 11:23:16;;;;;;;2.72;1.02;;;19.00;99.90;;;;;;4999207;28;20034;-83
2023/06/04 11:25:43;;;;;;;2.55;1.30;;;19.00;99.90;;;;;;4997222;28;20066;-84
2023/06/04 11:28:18;;;;;;;2.35;1.02;;;19.10;99.90;;;;;;4999488;28;20050;-85
2023/06/04 11:30:55;;;;;;;2.53;1.27;;;19.20;99.90;;;;;;5004842;28;20046;-81
2023/06/04 11:33:21;;;;;;;1.23;0.80;;;19.30;99.90;;;;;;5007108;28;20046;-82
2023/06/04 11:35:46;;;;;;;1.67;1.17;;;19.40;99.90;;;;;;5013490;28;20069;-82
2023/06/04 11:38:12;;;;;;;1.35;0.90;;;19.70;99.90;;;;;;5009336;28;20089;-84
2023/06/04 11:40:37;;;;;;;2.65;1.00;;;19.60;99.90;;;;;;4998110;28;20042;-85
2023/06/04 11:43:03;;;;;;;2.33;1.05;;;19.60;99.90;;;;;;5000901;28;20050;-85
2023/06/04 11:45:30;;;;;;;3.63;1.38;;;19.70;99.90;;;;;;4999177;28;20036;-85
2023/06/04 11:47:57;;;;;;;5.43;1.45;;;19.70;99.90;;;;;;4985075;28;20398;-85
2023/06/04 11:50:28;;;;;;;5.65;1.13;;;19.80;99.90;;;;;;4997728;28;20051;-85
2023/06/04 11:52:54;;;;;;;4.35;1.17;;;19.90;99.90;;;;;;5000471;28;20390;-86
2023/06/04 11:55:23;;;;;;;8.70;1.63;;;20.00;99.90;;;;;;4999074;28;20038;-86
2023/06/04 11:57:53;;;;;;;3.90;1.10;;;20.20;99.90;;;;;;4996571;28;20053;-86
2023/06/04 12:00:19;;;;;;;4.43;1.30;;;20.30;99.90;;;;;;5005594;28;20073;-86
2023/06/04 12:02:51;;;;;;;3.65;1.48;;;20.30;99.90;;;;;;5004543;28;20101;-87
2023/06/04 12:05:18;;;;;;;2.85;1.60;;;20.40;99.90;;;;;;4996935;28;20537;-88
2023/06/04 12:07:45;;;;;;;3.35;1.48;;;20.50;99.90;;;;;;4999523;28;20042;-86
2023/06/04 12:10:14;;;;;;;2.20;0.95;;;20.60;99.90;;;;;;5000514;28;20065;-87
2023/06/04 12:12:40;;;;;;;2.08;1.25;;;20.60;99.90;;;;;;5006644;28;20049;-86
2023/06/04 12:15:07;;;;;;;4.28;1.67;;;20.70;99.90;;;;;;5010363;28;20037;-86
2023/06/04 12:17:33;;;;;;;5.85;1.40;;;20.80;99.90;;;;;;4991508;28;20069;-86
2023/06/04 12:19:58;;;;;;;3.53;1.70;;;20.90;99.90;;;;;;4982126;28;20394;-87
2023/06/04 12:22:26;;;;;;;4.95;1.58;;;21.90;99.90;;;;;;5001448;28;20506;-87
2023/06/04 12:24:57;;;;;;;5.60;1.40;;;21.20;99.90;;;;;;4992056;28;20549;-85
2023/06/04 12:27:25;;;;;;;3.35;1.40;;;21.30;99.90;;;;;;5011756;28;20081;-86
2023/06/04 12:30:05;;;;;;;4.28;1.75;;;21.40;99.90;;;;;;4994070;28;20049;-86
2023/06/04 12:32:34;;;;;;;2.35;1.25;;;21.40;99.90;;;;;;4993429;28;20042;-87
2023/06/04 12:35:00;;;;;;;4.32;1.42;;;21.40;99.90;;;;;;5012269;28;20489;-87
2023/06/04 12:37:27;;;;;;;4.45;1.58;;;21.50;99.90;;;;;;5011073;28;20049;-86
2023/06/04 12:39:56;;;;;;;4.22;1.70;;;21.60;99.90;;;;;;4993286;28;20026;-85
2023/06/04 12:42:22;;;;;;;3.47;1.55;;;21.60;99.50;;;;;;4994129;28;20124;-85
2023/06/04 12:44:48;;;;;;;6.75;1.80;;;21.60;99.20;;;;;;5011671;28;20038;-86
2023/06/04 12:47:14;;;;;;;3.60;1.48;;;21.60;99.40;;;;;;5011458;28;20049;-87